Time;durP1;ratioP1;P1;durP2;ratioP2;P2;SDS_P1;SDS_P2;PMS_P1;PMS_P2;Temp;Humidity;BMP_temperature;BMP_pressure;BME280_temperature;BME280_humidity;BME280_pressure;Samples;Min_cycle;Max_cycle;Signal;HPM_P1;HPM_P2
2022/05/15 00:02:18;;;;;;;24.10;6.32;;;13.40;99.90;;;;;;5119472;27;20042;-77
2022/05/15 00:04:44;;;;;;;27.13;5.70;;;13.40;99.90;;;;;;5121887;27;20480;-77
2022/05/15 00:07:09;;;;;;;28.20;6.35;;;13.30;99.90;;;;;;5121824;27;20051;-78
2022/05/15 00:09:35;;;;;;;23.38;6.28;;;13.30;99.90;;;;;;5120371;27;20065;-77
2022/05/15 00:12:03;;;;;;;27.17;6.53;;;13.30;99.90;;;;;;5122137;27;20467;-77
2022/05/15 00:14:32;;;;;;;26.55;5.53;;;13.30;99.90;;;;;;5128624;27;20114;-76
2022/05/15 00:16:58;;;;;;;30.20;6.97;;;13.30;99.90;;;;;;5127246;27;20035;-77
2022/05/15 00:19:24;;;;;;;24.70;6.00;;;13.20;99.90;;;;;;5128636;27;20065;-77
2022/05/15 00:21:49;;;;;;;20.42;6.35;;;13.20;99.90;;;;;;5133201;27;20402;-76
2022/05/15 00:24:15;;;;;;;27.85;6.28;;;13.20;99.90;;;;;;5132696;27;20092;-76
2022/05/15 00:26:40;;;;;;;23.13;6.82;;;13.20;99.90;;;;;;5131760;27;20043;-77
2022/05/15 00:29:06;;;;;;;25.80;6.32;;;13.10;99.90;;;;;;5129393;27;20046;-77
2022/05/15 00:31:32;;;;;;;27.88;7.22;;;13.10;99.90;;;;;;5122543;27;20047;-78
2022/05/15 00:33:57;;;;;;;27.30;6.38;;;13.10;99.90;;;;;;5131994;27;20039;-78
2022/05/15 00:36:23;;;;;;;25.02;6.07;;;13.00;99.90;;;;;;5120762;27;20438;-78
2022/05/15 00:38:49;;;;;;;21.35;6.50;;;13.00;99.90;;;;;;5121586;27;20062;-78
2022/05/15 00:41:15;;;;;;;25.40;6.85;;;13.00;99.90;;;;;;5130616;27;20542;-78
2022/05/15 00:43:43;;;;;;;21.90;5.93;;;13.00;99.90;;;;;;5127317;27;20035;-77
2022/05/15 00:46:31;;;;;;;21.45;6.07;;;12.90;99.90;;;;;;5122122;27;20039;-77
2022/05/15 00:49:00;;;;;;;22.27;6.20;;;12.90;99.90;;;;;;5133962;27;20100;-77
2022/05/15 00:51:32;;;;;;;22.58;5.90;;;12.90;99.90;;;;;;5132184;27;20076;-77
2022/05/15 00:54:06;;;;;;;23.15;5.75;;;12.80;99.90;;;;;;5132328;27;20047;-77
2022/05/15 00:56:34;;;;;;;27.13;7.07;;;12.80;99.90;;;;;;5127903;27;20443;-77
2022/05/15 00:59:06;;;;;;;24.65;6.43;;;12.70;99.90;;;;;;5129740;27;20042;-77
2022/05/15 01:01:32;;;;;;;22.85;6.32;;;12.70;99.90;;;;;;5121387;27;20123;-77
2022/05/15 01:03:59;;;;;;;25.05;5.85;;;12.70;99.90;;;;;;5117897;27;20160;-78
2022/05/15 01:06:24;;;;;;;28.45;7.05;;;12.60;99.90;;;;;;5131903;27;20099;-77
2022/05/15 01:08:50;;;;;;;23.23;5.82;;;12.60;99.90;;;;;;5130415;27;20043;-77
2022/05/15 01:11:18;;;;;;;27.73;6.55;;;12.60;99.90;;;;;;5131179;27;20042;-77
2022/05/15 01:13:45;;;;;;;22.50;6.15;;;12.50;99.90;;;;;;5130408;27;20487;-78
2022/05/15 01:16:12;;;;;;;27.05;7.03;;;12.50;99.90;;;;;;5128077;27;20043;-77
2022/05/15 01:18:39;;;;;;;24.48;6.50;;;12.50;99.90;;;;;;5129293;27;20039;-77
2022/05/15 01:21:33;;;;;;;18.92;5.75;;;12.40;99.90;;;;;;5124649;27;20475;-77
2022/05/15 01:24:01;;;;;;;25.90;6.20;;;12.40;99.90;;;;;;5130833;27;20394;-78
2022/05/15 01:26:27;;;;;;;21.92;6.38;;;12.40;99.90;;;;;;5130621;27;20074;-77
2022/05/15 01:28:53;;;;;;;23.77;6.82;;;12.30;99.90;;;;;;5132567;27;20031;-75
2022/05/15 01:31:20;;;;;;;24.77;6.47;;;12.30;99.90;;;;;;5129629;27;20046;-76
2022/05/15 01:33:49;;;;;;;21.88;6.10;;;12.30;99.90;;;;;;5108889;28;20035;-76
2022/05/15 01:36:17;;;;;;;22.42;5.97;;;12.30;99.90;;;;;;5130215;27;20039;-76
2022/05/15 01:38:43;;;;;;;26.95;6.53;;;12.30;99.90;;;;;;5129851;27;20038;-76
2022/05/15 01:41:12;;;;;;;27.27;7.05;;;12.30;99.90;;;;;;5130076;27;20455;-77
2022/05/15 01:43:43;;;;;;;24.42;5.90;;;12.20;99.90;;;;;;5130379;27;20551;-77
2022/05/15 01:46:09;;;;;;;22.52;6.38;;;12.20;99.90;;;;;;5122624;27;20529;-76
2022/05/15 01:48:35;;;;;;;23.25;6.15;;;12.20;99.90;;;;;;5108677;27;20043;-77
2022/05/15 01:51:02;;;;;;;22.38;6.82;;;12.20;99.90;;;;;;5108034;27;20042;-76
2022/05/15 01:53:28;;;;;;;20.55;6.45;;;12.20;99.90;;;;;;5129064;27;20144;-77
2022/05/15 01:55:53;;;;;;;24.40;6.43;;;12.20;99.90;;;;;;5115927;28;20122;-77
2022/05/15 01:58:19;;;;;;;23.95;6.13;;;12.20;99.90;;;;;;5116144;28;20126;-78
2022/05/15 02:00:44;;;;;;;22.33;6.80;;;12.10;99.90;;;;;;5127183;28;20031;-77
2022/05/15 02:03:11;;;;;;;17.38;5.85;;;12.10;99.90;;;;;;5125705;27;20080;-77
2022/05/15 02:05:36;;;;;;;23.63;6.25;;;12.10;99.90;;;;;;5128922;28;20039;-77
2022/05/15 02:08:02;;;;;;;24.02;6.88;;;12.00;99.90;;;;;;5132319;28;20035;-77
2022/05/15 02:10:28;;;;;;;22.67;6.25;;;12.00;99.90;;;;;;5133393;27;20044;-77
2022/05/15 02:12:54;;;;;;;21.05;6.38;;;12.00;99.90;;;;;;5127822;27;20043;-77
2022/05/15 02:15:20;;;;;;;28.23;6.75;;;12.00;99.90;;;;;;5122072;28;20509;-77
2022/05/15 02:17:46;;;;;;;26.23;6.22;;;12.00;99.90;;;;;;5130621;27;20036;-77
2022/05/15 02:20:12;;;;;;;18.35;6.22;;;11.90;99.90;;;;;;5129595;28;20035;-77
2022/05/15 02:22:38;;;;;;;22.15;7.10;;;11.90;99.90;;;;;;5112993;28;20034;-77
2022/05/15 02:25:06;;;;;;;25.25;6.78;;;11.90;99.90;;;;;;5131143;28;20039;-77
2022/05/15 02:27:32;;;;;;;18.90;6.10;;;11.90;99.90;;;;;;5130548;27;20122;-77
2022/05/15 02:29:58;;;;;;;24.27;6.57;;;11.80;99.90;;;;;;5121427;28;20035;-77
2022/05/15 02:32:24;;;;;;;25.52;7.00;;;11.80;99.90;;;;;;5106603;27;20092;-78
2022/05/15 02:34:50;;;;;;;29.98;6.80;;;11.80;99.90;;;;;;5131603;27;20042;-77
2022/05/15 02:37:15;;;;;;;23.40;6.47;;;11.70;99.90;;;;;;5133187;27;20039;-77
2022/05/15 02:39:41;;;;;;;21.17;6.05;;;11.70;99.90;;;;;;5134411;27;20515;-77
2022/05/15 02:42:06;;;;;;;23.83;6.43;;;11.70;99.90;;;;;;5132796;27;20038;-77
2022/05/15 02:44:32;;;;;;;17.83;6.55;;;11.70;99.90;;;;;;5107511;27;20043;-77
2022/05/15 02:46:57;;;;;;;20.50;6.25;;;11.70;99.90;;;;;;5130237;27;20050;-77
2022/05/15 02:52:08;;;;;;;22.98;6.18;;;11.60;99.90;;;;;;5133755;27;20063;-77
2022/05/15 02:54:36;;;;;;;21.63;6.25;;;11.60;99.90;;;;;;5129635;27;20049;-77
2022/05/15 02:57:05;;;;;;;19.98;6.25;;;11.60;99.90;;;;;;5132435;27;20043;-77
2022/05/15 02:59:30;;;;;;;22.90;7.00;;;11.60;99.90;;;;;;5110271;28;20050;-77
2022/05/15 03:01:56;;;;;;;25.55;6.63;;;11.50;99.90;;;;;;5128911;27;20395;-77
2022/05/15 03:04:22;;;;;;;22.98;6.53;;;11.50;99.90;;;;;;5134236;27;20395;-77
2022/05/15 03:06:47;;;;;;;19.73;6.35;;;11.50;99.90;;;;;;5133467;27;20051;-77
2022/05/15 03:09:13;;;;;;;21.13;6.40;;;11.50;99.90;;;;;;5133312;27;20031;-77
2022/05/15 03:11:39;;;;;;;18.30;6.65;;;11.40;99.90;;;;;;5112471;27;20042;-77
2022/05/15 03:14:04;;;;;;;20.35;6.05;;;11.40;99.90;;;;;;5130287;27;20046;-77
2022/05/15 03:16:31;;;;;;;22.73;7.00;;;11.40;99.90;;;;;;5131346;27;20047;-77
2022/05/15 03:18:56;;;;;;;21.50;6.25;;;11.40;99.90;;;;;;5124175;27;20402;-76
2022/05/15 03:21:31;;;;;;;20.92;6.45;;;11.40;99.90;;;;;;5128812;27;20035;-77
2022/05/15 03:23:59;;;;;;;24.83;6.45;;;11.30;99.90;;;;;;5131913;27;20140;-77
2022/05/15 03:26:26;;;;;;;21.92;6.25;;;11.30;99.90;;;;;;5132149;27;20520;-77
2022/05/15 03:28:52;;;;;;;20.30;6.32;;;11.30;99.90;;;;;;5131102;27;20043;-76
2022/05/15 03:31:18;;;;;;;19.70;6.35;;;11.30;99.90;;;;;;5133727;27;20047;-77
2022/05/15 03:33:44;;;;;;;23.13;6.63;;;11.30;99.90;;;;;;5102765;27;20043;-77
2022/05/15 03:36:12;;;;;;;24.35;6.57;;;11.30;99.90;;;;;;5125632;27;20047;-77
2022/05/15 03:38:43;;;;;;;20.38;6.30;;;11.30;99.90;;;;;;5132380;27;20042;-76
2022/05/15 03:41:13;;;;;;;23.23;6.28;;;11.30;99.90;;;;;;5133769;27;20035;-77
2022/05/15 03:43:39;;;;;;;23.55;7.18;;;11.70;99.90;;;;;;5133423;27;20053;-77
2022/05/15 03:46:06;;;;;;;21.08;6.53;;;11.20;99.90;;;;;;5124343;27;20529;-77
2022/05/15 03:48:31;;;;;;;20.17;6.75;;;11.20;99.90;;;;;;5133178;27;20099;-77
2022/05/15 03:50:57;;;;;;;22.77;6.88;;;11.20;99.90;;;;;;5133680;27;20039;-77
2022/05/15 03:53:24;;;;;;;22.13;6.32;;;11.20;99.90;;;;;;5130672;27;20039;-77
2022/05/15 03:55:51;;;;;;;17.80;6.72;;;11.20;99.90;;;;;;5131433;27;20047;-77
2022/05/15 03:58:16;;;;;;;27.40;7.47;;;11.20;99.90;;;;;;5124309;27;20043;-77
2022/05/15 04:00:42;;;;;;;21.58;7.03;;;11.20;99.90;;;;;;5128991;27;20039;-77
2022/05/15 04:03:08;;;;;;;23.10;6.88;;;11.20;99.90;;;;;;5133171;27;20469;-77
2022/05/15 04:05:34;;;;;;;21.45;7.05;;;11.20;99.90;;;;;;5131272;27;20103;-77
2022/05/15 04:07:59;;;;;;;22.73;7.43;;;11.20;99.90;;;;;;5131314;27;20035;-77
2022/05/15 04:10:29;;;;;;;23.92;7.20;;;11.20;99.90;;;;;;5115938;27;20070;-77
2022/05/15 04:12:54;;;;;;;25.45;7.45;;;11.20;99.90;;;;;;5129781;27;20047;-78
2022/05/15 04:15:20;;;;;;;23.35;7.07;;;11.20;99.90;;;;;;5130162;27;20456;-77
2022/05/15 04:17:49;;;;;;;26.85;7.28;;;11.30;99.90;;;;;;5131776;27;20406;-77
2022/05/15 04:20:18;;;;;;;24.20;7.03;;;11.20;99.90;;;;;;5124580;27;20486;-77
2022/05/15 04:22:43;;;;;;;24.05;7.28;;;11.30;99.90;;;;;;5132722;27;20538;-77
2022/05/15 04:25:13;;;;;;;24.42;6.80;;;11.30;99.90;;;;;;5132875;27;20118;-77
2022/05/15 04:27:40;;;;;;;24.65;7.75;;;11.30;99.90;;;;;;5130462;27;20043;-76
2022/05/15 04:30:06;;;;;;;24.83;6.90;;;11.30;99.90;;;;;;5123854;27;20120;-77
2022/05/15 04:32:32;;;;;;;24.77;7.13;;;11.30;99.90;;;;;;5129923;27;20043;-77
2022/05/15 04:34:57;;;;;;;21.48;7.00;;;11.30;99.90;;;;;;5131440;27;20447;-77
2022/05/15 04:37:23;;;;;;;22.48;7.18;;;11.30;99.90;;;;;;5132629;27;20043;-77
2022/05/15 04:39:48;;;;;;;19.48;6.88;;;11.30;99.90;;;;;;5134024;27;20051;-77
2022/05/15 04:42:14;;;;;;;22.92;7.35;;;11.30;99.90;;;;;;5133702;27;20615;-77
2022/05/15 04:44:39;;;;;;;22.98;6.80;;;11.30;99.90;;;;;;5130122;27;20082;-76
2022/05/15 04:47:05;;;;;;;23.60;7.60;;;11.30;99.90;;;;;;5130605;27;20407;-75
2022/05/15 04:49:31;;;;;;;23.80;6.85;;;11.30;99.90;;;;;;5132250;27;20099;-76
2022/05/15 04:51:56;;;;;;;26.42;7.75;;;11.40;99.90;;;;;;5125247;27;20035;-77
2022/05/15 04:54:22;;;;;;;19.15;6.25;;;11.40;99.90;;;;;;5131863;27;20074;-76
2022/05/15 04:56:47;;;;;;;20.23;6.63;;;11.40;99.90;;;;;;5130274;27;20448;-77
2022/05/15 04:59:13;;;;;;;19.45;6.30;;;11.40;99.90;;;;;;5115620;27;20035;-77
2022/05/15 05:01:38;;;;;;;23.20;7.05;;;11.40;99.90;;;;;;5131017;27;20050;-76
2022/05/15 05:04:04;;;;;;;20.00;6.35;;;11.40;99.90;;;;;;5131886;27;20415;-76
2022/05/15 05:06:29;;;;;;;25.48;6.95;;;11.50;99.90;;;;;;5130655;27;20071;-77
2022/05/15 05:08:55;;;;;;;23.45;6.68;;;11.50;99.90;;;;;;5127309;27;20069;-76
2022/05/15 05:11:21;;;;;;;22.63;6.68;;;11.50;99.90;;;;;;5131299;27;20049;-77
2022/05/15 05:13:47;;;;;;;26.25;7.03;;;11.50;99.90;;;;;;5121987;27;20040;-77
2022/05/15 05:16:13;;;;;;;28.20;6.70;;;11.50;99.90;;;;;;5122326;27;20114;-77
2022/05/15 05:18:39;;;;;;;21.63;6.40;;;11.50;99.90;;;;;;5130613;27;20028;-77
2022/05/15 05:21:06;;;;;;;26.02;7.28;;;11.60;99.90;;;;;;5130510;27;20114;-77
2022/05/15 05:23:32;;;;;;;22.27;7.05;;;11.60;99.90;;;;;;5124743;27;20123;-77
2022/05/15 05:25:58;;;;;;;18.38;6.45;;;11.60;99.90;;;;;;5126554;27;20039;-77
2022/05/15 05:28:25;;;;;;;25.10;7.20;;;11.60;99.90;;;;;;5125611;27;20104;-77
2022/05/15 05:30:51;;;;;;;22.20;6.80;;;11.60;99.90;;;;;;5130425;27;20063;-77
2022/05/15 05:33:18;;;;;;;22.13;6.85;;;11.70;99.90;;;;;;5124558;27;20031;-76
2022/05/15 05:35:44;;;;;;;19.30;5.97;;;11.70;99.90;;;;;;5132414;27;20514;-76
2022/05/15 05:38:10;;;;;;;22.40;6.60;;;11.70;99.90;;;;;;5159823;22;20063;-66
2022/05/15 05:40:36;;;;;;;21.38;6.30;;;11.80;99.90;;;;;;5125821;27;20594;-66
2022/05/15 05:43:02;;;;;;;22.13;6.75;;;11.80;99.90;;;;;;5119109;27;20090;-66
2022/05/15 05:45:28;;;;;;;25.52;6.45;;;11.80;99.90;;;;;;5102409;27;20035;-66
2022/05/15 05:47:55;;;;;;;23.17;6.82;;;11.90;99.90;;;;;;5115601;27;20035;-66
2022/05/15 05:50:24;;;;;;;24.77;6.85;;;11.90;99.90;;;;;;5119891;27;20043;-66
2022/05/15 05:52:50;;;;;;;23.08;7.10;;;11.90;99.90;;;;;;5104599;27;20031;-66
2022/05/15 05:55:18;;;;;;;20.98;6.72;;;11.90;99.90;;;;;;5122916;27;20124;-66
2022/05/15 05:57:45;;;;;;;24.35;6.97;;;12.00;99.90;;;;;;5123826;27;20062;-66
2022/05/15 06:00:23;;;;;;;21.67;6.45;;;12.00;99.90;;;;;;5122237;27;20054;-66
2022/05/15 06:02:49;;;;;;;20.58;6.47;;;12.00;99.90;;;;;;5103399;28;20092;-66
2022/05/15 06:05:15;;;;;;;29.70;7.50;;;12.10;99.90;;;;;;5129030;27;20030;-66
2022/05/15 06:07:41;;;;;;;22.00;6.45;;;12.20;99.90;;;;;;5133042;27;20401;-66
2022/05/15 06:10:09;;;;;;;23.30;6.97;;;12.20;99.90;;;;;;5122007;27;20070;-66
2022/05/15 06:12:35;;;;;;;20.65;6.97;;;12.20;99.90;;;;;;5118197;27;20074;-66
2022/05/15 06:15:01;;;;;;;23.40;6.60;;;12.20;99.90;;;;;;5112522;27;20071;-66
2022/05/15 06:17:29;;;;;;;22.60;6.70;;;12.30;99.90;;;;;;5104191;27;20118;-66
2022/05/15 06:19:55;;;;;;;24.10;7.05;;;12.30;99.90;;;;;;5128838;27;20126;-66
2022/05/15 06:22:21;;;;;;;22.23;6.65;;;12.40;99.90;;;;;;5122177;27;20049;-66
2022/05/15 06:24:47;;;;;;;21.15;5.88;;;12.40;99.90;;;;;;5100143;27;20542;-66
2022/05/15 06:27:13;;;;;;;26.98;6.85;;;12.40;99.90;;;;;;5096878;27;20070;-66
2022/05/15 06:29:40;;;;;;;15.57;5.70;;;12.50;99.90;;;;;;5098898;27;20148;-66
2022/05/15 06:32:06;;;;;;;22.48;5.80;;;12.50;99.90;;;;;;5117467;27;20031;-66
2022/05/15 06:34:32;;;;;;;22.08;5.40;;;12.60;99.90;;;;;;5098868;28;20079;-66
2022/05/15 06:36:58;;;;;;;24.13;5.90;;;12.60;99.90;;;;;;5099243;27;20039;-66
2022/05/15 06:39:24;;;;;;;19.88;5.30;;;12.60;99.90;;;;;;5121683;27;20489;-66
2022/05/15 06:41:50;;;;;;;17.35;4.90;;;12.70;99.90;;;;;;5114887;27;20039;-66
2022/05/15 06:44:17;;;;;;;18.67;5.47;;;12.70;99.90;;;;;;5103028;27;20114;-66
2022/05/15 06:46:43;;;;;;;14.18;4.38;;;12.70;99.90;;;;;;5111882;27;20051;-66
2022/05/15 06:49:09;;;;;;;16.95;4.75;;;12.80;99.90;;;;;;5115885;27;20055;-66
2022/05/15 06:51:34;;;;;;;20.52;5.22;;;12.90;99.90;;;;;;5111063;27;20068;-71
2022/05/15 06:54:00;;;;;;;17.38;4.85;;;12.90;99.90;;;;;;5118841;27;20032;-66
2022/05/15 06:59:10;;;;;;;14.77;4.80;;;13.00;99.90;;;;;;5094910;27;20052;-66
2022/05/15 07:01:35;;;;;;;15.20;4.22;;;13.10;99.90;;;;;;5124059;27;20083;-65
2022/05/15 07:04:01;;;;;;;20.13;5.18;;;13.10;99.90;;;;;;5117433;27;20027;-66
2022/05/15 07:06:27;;;;;;;20.73;5.32;;;13.10;99.90;;;;;;5120000;27;20444;-65
2022/05/15 07:08:52;;;;;;;18.08;4.90;;;13.20;99.90;;;;;;5139247;27;20040;-66
2022/05/15 07:11:18;;;;;;;16.17;4.07;;;13.30;99.90;;;;;;5118082;27;20122;-65
2022/05/15 07:13:43;;;;;;;15.35;4.55;;;13.30;99.90;;;;;;5120159;27;20039;-65
2022/05/15 07:16:10;;;;;;;16.45;4.53;;;13.40;99.90;;;;;;5105218;27;20043;-66
2022/05/15 07:18:37;;;;;;;19.73;5.00;;;13.50;99.90;;;;;;5130739;27;20047;-66
2022/05/15 07:21:03;;;;;;;14.98;5.40;;;13.50;99.90;;;;;;5130914;27;20039;-66
2022/05/15 07:23:29;;;;;;;14.18;4.47;;;13.60;99.90;;;;;;5134409;27;20476;-66
2022/05/15 07:25:55;;;;;;;19.25;5.43;;;13.60;99.90;;;;;;5134595;27;20062;-66
2022/05/15 07:28:21;;;;;;;15.40;4.75;;;13.70;99.90;;;;;;5134260;27;20035;-66
2022/05/15 07:30:48;;;;;;;22.80;5.10;;;13.80;99.90;;;;;;5117635;27;20043;-66
2022/05/15 07:33:17;;;;;;;22.20;5.90;;;13.90;99.90;;;;;;5095599;28;20047;-66
2022/05/15 07:35:42;;;;;;;15.77;4.70;;;13.90;99.90;;;;;;5113830;28;20071;-66
2022/05/15 07:38:08;;;;;;;14.95;5.07;;;14.00;99.90;;;;;;5094963;28;20090;-66
2022/05/15 07:40:33;;;;;;;17.30;5.10;;;14.10;99.90;;;;;;5113877;28;20115;-66
2022/05/15 07:43:03;;;;;;;16.90;4.80;;;14.10;99.90;;;;;;5113656;28;20067;-66
2022/05/15 07:45:29;;;;;;;21.80;5.03;;;14.20;99.90;;;;;;5113690;28;20039;-66
2022/05/15 07:47:54;;;;;;;16.50;4.65;;;14.30;99.90;;;;;;5094942;28;20039;-66
2022/05/15 07:50:20;;;;;;;21.58;4.97;;;14.40;99.90;;;;;;5095548;28;20055;-66
2022/05/15 07:52:47;;;;;;;16.98;5.00;;;14.50;99.90;;;;;;5095277;28;20169;-66
2022/05/15 07:55:14;;;;;;;18.55;4.78;;;14.50;99.90;;;;;;5095131;28;20047;-66
2022/05/15 07:57:39;;;;;;;15.35;4.82;;;14.60;99.90;;;;;;5112832;28;20047;-66
2022/05/15 08:00:08;;;;;;;16.67;4.97;;;14.70;99.90;;;;;;5094661;28;20048;-66
2022/05/15 08:02:34;;;;;;;19.77;4.35;;;14.80;99.90;;;;;;5101029;27;20066;-66
2022/05/15 08:08:01;;;;;;;18.35;4.63;;;14.90;99.90;;;;;;5115286;27;20401;-66
2022/05/15 08:10:32;;;;;;;17.52;4.10;;;15.00;99.90;;;;;;5130694;27;20031;-66
2022/05/15 08:12:58;;;;;;;17.40;4.25;;;15.20;99.90;;;;;;5115319;27;20039;-66
2022/05/15 08:15:24;;;;;;;17.40;4.25;;;15.30;99.90;;;;;;5133919;27;20088;-66
2022/05/15 08:17:49;;;;;;;18.67;4.25;;;15.40;99.90;;;;;;5114766;27;20043;-66
2022/05/15 08:25:45;;;;;;;13.93;4.40;;;16.10;99.90;;;;;;5133537;27;20138;-66
2022/05/15 08:28:12;;;;;;;16.45;4.32;;;16.40;99.90;;;;;;5132908;27;20035;-66
2022/05/15 08:30:38;;;;;;;14.70;3.97;;;16.70;99.90;;;;;;5132344;27;20477;-66
2022/05/15 08:33:04;;;;;;;14.13;3.85;;;17.00;99.90;;;;;;5132897;27;20130;-66
2022/05/15 08:35:30;;;;;;;20.00;5.25;;;17.20;99.90;;;;;;5132919;27;20085;-66
2022/05/15 08:37:57;;;;;;;16.85;4.95;;;17.50;99.90;;;;;;5132045;27;20039;-66
2022/05/15 08:40:28;;;;;;;17.80;4.63;;;17.80;99.90;;;;;;5114504;27;20055;-66
2022/05/15 08:42:58;;;;;;;13.85;3.97;;;18.20;99.90;;;;;;5114869;27;20035;-66
2022/05/15 08:45:27;;;;;;;20.77;5.15;;;18.40;99.90;;;;;;5132858;27;20035;-66
2022/05/15 08:48:09;;;;;;;17.13;4.32;;;18.70;99.90;;;;;;5124048;27;20046;-66
2022/05/15 08:50:39;;;;;;;18.25;4.15;;;18.90;98.50;;;;;;5132914;27;20099;-66
2022/05/15 08:53:08;;;;;;;13.55;4.25;;;19.10;98.30;;;;;;5132691;27;20488;-66
2022/05/15 08:55:42;;;;;;;17.05;4.20;;;19.40;98.00;;;;;;5096704;27;20469;-66
2022/05/15 08:58:12;;;;;;;14.13;4.35;;;19.60;97.50;;;;;;5131891;27;20035;-66
2022/05/15 09:00:52;;;;;;;11.68;3.88;;;19.80;96.50;;;;;;5114605;27;20385;-66
2022/05/15 09:03:30;;;;;;;14.65;4.57;;;20.00;96.00;;;;;;5132420;27;20497;-66
2022/05/15 09:06:07;;;;;;;19.73;5.13;;;20.20;94.00;;;;;;5132676;27;20393;-65
2022/05/15 09:08:45;;;;;;;16.95;4.32;;;20.30;94.40;;;;;;5113704;27;20126;-65
2022/05/15 09:11:12;;;;;;;17.13;4.45;;;20.50;93.20;;;;;;5128405;27;20039;-67
2022/05/15 09:13:54;;;;;;;14.50;4.03;;;20.70;93.60;;;;;;5111822;28;20063;-65
2022/05/15 09:16:24;;;;;;;16.95;4.35;;;20.70;92.30;;;;;;5093659;28;20489;-65
2022/05/15 09:18:51;;;;;;;17.92;4.53;;;20.90;92.30;;;;;;5093169;28;20044;-67
2022/05/15 09:21:17;;;;;;;15.15;4.15;;;21.10;92.20;;;;;;5093330;28;20058;-68
2022/05/15 09:23:49;;;;;;;15.55;4.82;;;21.20;91.80;;;;;;5111774;28;20070;-68
2022/05/15 09:26:41;;;;;;;16.08;4.25;;;21.50;91.40;;;;;;5111725;28;20451;-65
2022/05/15 09:29:16;;;;;;;14.98;4.28;;;21.60;90.90;;;;;;5116212;27;20078;-65
2022/05/15 09:31:42;;;;;;;15.07;4.28;;;21.90;90.40;;;;;;5132000;27;20053;-65
2022/05/15 09:34:26;;;;;;;14.82;4.53;;;22.10;89.80;;;;;;5132273;27;20054;-66
2022/05/15 09:38:26;;;;;;;16.65;4.60;;;22.30;83.40;;;;;;5132058;27;20479;-65
2022/05/15 09:39:51;;;;;;;11.07;4.00;;;22.50;85.40;;;;;;5113153;27;20051;-67
2022/05/15 09:45:18;;;;;;;14.88;4.57;;;22.80;82.60;;;;;;5130175;27;20484;-65
2022/05/15 09:48:00;;;;;;;16.60;4.22;;;23.00;79.00;;;;;;5123172;27;20059;-66
2022/05/15 09:50:47;;;;;;;14.65;4.22;;;23.20;79.80;;;;;;5131642;27;20088;-69
2022/05/15 09:53:28;;;;;;;11.00;3.97;;;23.40;74.40;;;;;;5113737;27;20047;-65
2022/05/15 09:56:01;;;;;;;16.05;4.80;;;23.60;73.60;;;;;;5131849;27;20039;-66
2022/05/15 09:58:39;;;;;;;14.05;4.22;;;23.70;72.80;;;;;;5131321;27;20485;-66
2022/05/15 10:01:42;;;;;;;15.80;4.60;;;23.80;72.20;;;;;;5131752;27;20043;-65
2022/05/15 10:04:20;;;;;;;18.13;4.93;;;23.90;69.70;;;;;;5131387;27;20043;-65
2022/05/15 10:06:53;;;;;;;14.48;4.10;;;23.80;70.20;;;;;;5096414;28;20050;-65
2022/05/15 10:09:26;;;;;;;20.25;5.18;;;23.80;69.80;;;;;;5131631;28;20039;-65
2022/05/15 10:11:59;;;;;;;16.75;4.55;;;23.70;68.30;;;;;;5131833;28;20429;-68
2022/05/15 10:14:52;;;;;;;15.02;4.68;;;23.60;68.40;;;;;;5131832;28;20472;-66
2022/05/15 10:17:20;;;;;;;14.75;4.55;;;23.50;68.20;;;;;;5083368;28;20051;-65
2022/05/15 10:19:58;;;;;;;11.10;3.90;;;23.50;69.60;;;;;;5123574;28;20494;-65
2022/05/15 10:22:49;;;;;;;13.90;4.30;;;23.60;67.80;;;;;;5092785;28;20092;-65
2022/05/15 10:25:38;;;;;;;13.53;4.60;;;23.80;67.10;;;;;;5111116;28;20043;-66
2022/05/15 10:28:32;;;;;;;13.07;4.40;;;24.10;67.10;;;;;;5110870;28;20350;-65
2022/05/15 10:31:17;;;;;;;16.17;5.00;;;24.30;65.60;;;;;;5075896;28;20051;-65
2022/05/15 10:33:47;;;;;;;15.65;5.03;;;24.50;65.10;;;;;;5093019;28;20079;-68
2022/05/15 10:36:25;;;;;;;16.13;4.90;;;24.60;65.20;;;;;;5110508;28;20043;-66
2022/05/15 10:39:08;;;;;;;17.02;5.03;;;24.60;63.70;;;;;;5092356;28;20047;-65
2022/05/15 10:42:03;;;;;;;14.93;4.50;;;24.70;62.70;;;;;;5092714;28;20512;-65
2022/05/15 10:45:10;;;;;;;14.57;4.22;;;24.80;62.20;;;;;;5092609;28;20044;-65
2022/05/15 10:48:00;;;;;;;17.17;4.57;;;24.90;62.60;;;;;;5040088;28;20127;-65
2022/05/15 10:51:03;;;;;;;17.65;4.40;;;24.90;60.80;;;;;;5014708;28;20086;-66
2022/05/15 10:59:32;;;;;;;12.00;4.13;;;25.20;59.10;;;;;;5095790;28;20452;-65
2022/05/15 11:02:35;;;;;;;13.95;4.35;;;25.30;58.30;;;;;;5113585;27;20032;-68
2022/05/15 11:05:16;;;;;;;15.32;4.28;;;25.40;58.10;;;;;;5107017;27;20078;-65
2022/05/15 11:07:54;;;;;;;18.42;4.50;;;25.40;57.80;;;;;;5111451;27;20137;-66
2022/05/15 11:10:31;;;;;;;13.60;4.25;;;25.60;59.10;;;;;;5106184;27;20039;-66
2022/05/15 11:13:11;;;;;;;11.77;4.22;;;25.70;58.20;;;;;;5114947;27;20039;-65
2022/05/15 11:16:07;;;;;;;16.38;4.38;;;25.90;57.50;;;;;;5115082;27;20046;-65
2022/05/15 11:18:48;;;;;;;14.40;4.00;;;26.00;56.50;;;;;;5099637;28;20051;-66
2022/05/15 11:21:48;;;;;;;11.00;3.97;;;25.90;56.10;;;;;;5120404;27;20789;-65
2022/05/15 11:24:54;;;;;;;12.43;4.10;;;26.00;56.60;;;;;;5116735;27;20408;-68
2022/05/15 11:27:48;;;;;;;13.88;4.45;;;26.00;55.20;;;;;;5114242;27;20323;-65
2022/05/15 11:30:37;;;;;;;13.63;4.82;;;25.80;55.70;;;;;;5113688;27;20125;-66
2022/05/15 11:33:31;;;;;;;12.05;4.00;;;25.80;55.50;;;;;;5113890;27;20052;-68
2022/05/15 11:36:21;;;;;;;17.75;4.38;;;25.90;55.60;;;;;;5087990;27;20489;-65
2022/05/15 11:39:11;;;;;;;12.82;4.38;;;26.10;56.60;;;;;;5099340;22;20040;-77
2022/05/15 11:41:36;;;;;;;11.43;3.83;;;26.30;55.20;;;;;;5090656;28;20430;-77
2022/05/15 11:44:10;;;;;;;12.52;4.03;;;26.40;53.10;;;;;;5093854;28;20101;-77
2022/05/15 11:46:47;;;;;;;12.30;3.80;;;26.40;54.40;;;;;;5073171;28;20040;-77
2022/05/15 11:49:25;;;;;;;13.63;4.65;;;26.40;53.30;;;;;;5090778;28;20054;-77
2022/05/15 11:52:03;;;;;;;10.80;3.67;;;26.40;53.70;;;;;;5094444;28;20039;-77
2022/05/15 11:54:37;;;;;;;10.55;3.85;;;26.40;54.10;;;;;;5089581;28;20047;-77
2022/05/15 11:57:07;;;;;;;13.90;4.03;;;26.40;53.40;;;;;;5093640;28;20141;-77
2022/05/15 11:59:55;;;;;;;14.93;4.30;;;26.40;53.90;;;;;;5095578;28;20077;-76
2022/05/15 12:02:20;;;;;;;11.95;3.63;;;26.40;52.90;;;;;;5113150;28;20035;-76
2022/05/15 12:04:46;;;;;;;11.48;4.30;;;26.40;53.60;;;;;;5092950;28;20044;-77
2022/05/15 12:07:14;;;;;;;13.02;4.40;;;26.40;53.30;;;;;;5078016;28;20043;-77
2022/05/15 12:09:49;;;;;;;13.77;3.95;;;26.50;53.20;;;;;;5095540;28;20503;-77
2022/05/15 12:12:21;;;;;;;11.13;3.90;;;26.50;52.90;;;;;;5074722;28;20541;-77
2022/05/15 12:15:19;;;;;;;16.48;4.10;;;26.60;52.80;;;;;;5095714;28;20510;-76
2022/05/15 12:17:55;;;;;;;11.32;4.22;;;26.70;51.70;;;;;;5093473;28;20040;-76
2022/05/15 12:20:29;;;;;;;11.45;4.15;;;26.80;52.20;;;;;;5087680;28;20055;-77
2022/05/15 12:23:14;;;;;;;10.95;3.60;;;26.90;51.30;;;;;;5091775;28;20491;-77
2022/05/15 12:26:18;;;;;;;12.80;3.80;;;26.90;51.20;;;;;;5095565;28;20069;-77
2022/05/15 12:29:16;;;;;;;11.07;3.60;;;26.80;49.60;;;;;;5089821;28;20092;-77
2022/05/15 12:31:46;;;;;;;11.13;3.90;;;26.80;50.50;;;;;;5063326;28;20116;-77
2022/05/15 12:34:14;;;;;;;13.07;3.50;;;26.70;50.70;;;;;;5096258;28;20040;-77
2022/05/15 12:36:43;;;;;;;11.70;3.75;;;26.70;51.30;;;;;;5088468;28;20052;-77
2022/05/15 12:39:20;;;;;;;11.65;3.60;;;26.80;51.20;;;;;;5086840;28;20399;-77
2022/05/15 12:41:46;;;;;;;13.05;4.30;;;26.90;51.00;;;;;;5096266;28;20106;-77
2022/05/15 12:44:11;;;;;;;13.82;5.10;;;27.00;50.40;;;;;;5095439;28;20123;-77
2022/05/15 12:46:53;;;;;;;12.23;4.25;;;27.00;50.20;;;;;;5110337;28;20437;-77
2022/05/15 12:49:31;;;;;;;10.73;3.67;;;27.00;50.50;;;;;;5105178;28;20491;-78
2022/05/15 12:52:15;;;;;;;14.65;4.15;;;27.10;50.20;;;;;;5112154;28;20042;-76
2022/05/15 12:54:43;;;;;;;11.32;4.30;;;27.10;51.00;;;;;;5089944;28;20080;-77
2022/05/15 12:57:17;;;;;;;12.55;3.83;;;27.20;51.00;;;;;;5093600;28;20036;-77
2022/05/15 12:59:48;;;;;;;12.90;3.78;;;27.30;50.20;;;;;;5094828;28;20607;-76
2022/05/15 13:02:34;;;;;;;12.93;4.07;;;27.40;49.80;;;;;;5094468;28;20043;-77
2022/05/15 13:05:03;;;;;;;10.05;3.80;;;27.40;49.10;;;;;;5094823;28;20043;-77
2022/05/15 13:07:36;;;;;;;17.60;4.32;;;27.50;49.50;;;;;;5091720;28;20039;-77
2022/05/15 13:10:10;;;;;;;10.98;3.92;;;27.50;49.40;;;;;;5090836;28;20134;-77
2022/05/15 13:12:49;;;;;;;15.10;4.20;;;27.50;48.60;;;;;;5098601;28;20099;-78
2022/05/15 13:15:18;;;;;;;11.73;3.45;;;27.50;48.00;;;;;;5095456;28;20044;-77
2022/05/15 13:17:44;;;;;;;10.48;3.40;;;27.50;47.90;;;;;;5104726;28;20403;-77